Latest Coastal Weather Observations for Groote Eylandt Airport

IDD60701

Issued at 10:21 am CST Tuesday 6 December 2016 (issued every 10 minutes, with the page automatically refreshed every 10 minutes)

About coastal observations | Map of coastal stations | Coastal observations for NT | Marine services | Other Formats
Station Details ID: 014518 Name: GROOTE EYLANDT AIRPORT Lat: -13.97 Lon: 136.46 Height: 13.7 m
Data from the previous 72 hours. | See also: Recent months at Groote Eylandt Airport
Date/Time
CST
Temp
°C
Wind Pressure Rain since
9am
mm
Weather Cloud Vis
km
Sea
Height
m
Swell
Dir  Spd
kts
Gust
kts
hPa Trend Height
m
Period
s
Dir
06/10:00am 32.4 ENE 6 11 1011.2 - 0.2 - - 10 - - - -
06/09:30am 31.3 NE 6 9 1011.3 - 0.2 - - 10 - - - -
06/09:00am 30.8 ENE 6 10 1011.4 - 4.6 - - 10 - - - -
06/08:30am 29.9 E 5 7 1011.3 - 4.6 - - 10 - - - -
06/08:00am 28.7 E 6 8 1011.2 - 4.6 - - 10 - - - -
06/07:30am 26.7 NE 1 4 1010.8 - 4.6 - - 10 - - - -
06/07:00am 24.6 CALM 0 0 1010.6 - 4.6 - - 10 - - - -
06/06:30am 23.7 ESE 3 5 1010.5 - 4.6 - - 10 - - - -
06/06:00am 23.0 CALM 0 0 1010.0 - 4.6 - - 10 - - - -
06/05:30am 23.3 CALM 0 0 1009.8 - 4.6 - - 10 - - - -
06/05:00am 23.2 E 2 3 1009.7 - 4.6 - - 10 - - - -
06/04:30am 23.3 ESE 3 4 1009.2 - 4.6 - - 10 - - - -
06/04:00am 23.5 ESE 2 3 1008.8 - 4.6 - - 10 - - - -
06/03:30am 23.5 E 1 4 1008.7 - 4.6 - - 10 - - - -
06/03:00am 23.6 E 3 3 1008.6 - 4.6 - - 10 - - - -
06/02:30am 23.4 E 3 3 1008.6 - 4.6 - - 10 - - - -
06/02:16am 23.6 E 2 5 1008.5 - 4.6 - Partly cloudy 10 - - - -
06/02:00am 23.6 CALM 0 3 1008.5 - 4.6 - Partly cloudy 10 - - - -
06/01:47am 23.8 E 3 4 1008.6 - 4.6 - Partly cloudy 3 - - - -
06/01:30am 23.7 CALM 0 0 1008.8 - 4.6 - - 10 - - - -
06/01:00am 23.9 CALM 0 0 1008.9 - 4.6 - - 10 - - - -
06/12:30am 24.4 CALM 0 0 1009.5 - 4.6 - - 10 - - - -
06/12:00am 24.3 CALM 0 0 1009.7 - 4.4 - - 10 - - - -
 
Date/Time
CST
Temp
°C
Wind Pressure Rain since
9am
mm
Weather Cloud Vis
km
Sea
Height
m
Swell
Dir  Spd
kts
Gust
kts
hPa Trend Height
m
Period
s
Dir
05/11:30pm 24.6 E 1 3 1009.7 - 4.4 - - 10 - - - -
05/11:00pm 24.9 E 3 3 1010.0 - 4.4 - - 10 - - - -
05/10:30pm 25.2 ENE 3 4 1010.1 - 4.4 - - 10 - - - -
05/10:00pm 25.4 CALM 0 0 1010.0 - 4.4 - - 10 - - - -
05/09:30pm 25.6 CALM 0 0 1009.6 - 4.4 - - 10 - - - -
05/09:00pm 26.1 CALM 0 0 1009.4 - 4.4 - - 10 - - - -
05/08:30pm 26.2 E 1 3 1009.1 - 4.4 - - 10 - - - -
05/08:00pm 26.1 ESE 3 5 1008.8 - 4.4 - Partly cloudy 10 - - - -
05/07:30pm 26.2 ESE 1 4 1008.6 - 4.4 - Partly cloudy 10 - - - -
05/07:00pm 26.2 ESE 4 5 1008.5 - 4.4 - Partly cloudy 10 - - - -
05/06:30pm 26.3 ESE 3 5 1008.4 - 4.4 - Partly cloudy 10 - - - -
05/06:00pm 26.3 ENE 7 11 1008.2 - 4.4 Rain Cloudy 10 - - - -
05/05:30pm 25.6 ENE 7 9 1008.5 - 4.4 - Partly cloudy 10 - - - -
05/05:00pm 27.1 ENE 7 10 1007.9 - 4.2 - Partly cloudy 10 - - - -
05/04:30pm 26.9 NE 5 6 1007.7 - 4.2 - Cloudy 10 - - - -
05/04:00pm 26.1 ENE 6 8 1007.9 - 4.2 - Partly cloudy 10 - - - -
05/03:30pm 26.4 ENE 14 20 1008.1 - 3.8 - Partly cloudy 10 - - - -
05/03:00pm 29.7 ENE 18 23 1007.6 - 3.8 - Mostly cloudy 10 - - - -
05/02:55pm 32.0 E 16 22 1007.4 - 3.8 - Partly cloudy 10 - - - -
05/02:30pm 32.8 E 8 11 1007.5 - 3.8 - Partly cloudy 10 - - - -
05/02:00pm 32.0 E 9 13 1007.8 - 3.8 - Partly cloudy 10 - - - -
05/01:30pm 31.2 E 10 14 1008.1 - 3.6 - Partly cloudy 10 - - - -
05/01:00pm 29.9 E 5 11 1008.7 - 3.6 - Partly cloudy 10 - - - -
05/12:30pm 26.4 ESE 6 9 1009.2 - 3.6 - Partly cloudy 10 - - - -
05/12:29pm 26.3 ESE 6 9 1009.2 - 3.6 - Partly cloudy 10 - - - -
05/12:04pm 25.8 E 18 26 1009.7 - 1.8 - Partly cloudy 5 - - - -
05/12:01pm 26.1 E 19 29 1009.6 - 0.6 - Partly cloudy 7 - - - -
05/12:00pm 26.1 E 19 29 1009.6 - 0.4 Showers Cloudy 8 - - - -
05/11:52am 29.8 NNE 12 26 1009.5 - 0.0 - Partly cloudy 10 - - - -
05/11:30am 33.6 E 9 13 1009.4 - 0.0 - Partly cloudy 10 - - - -
05/11:00am 33.0 ENE 8 17 1009.7 - 0.0 - Partly cloudy 10 - - - -
05/10:30am 32.3 ENE 8 12 1010.1 - 0.0 - Partly cloudy 10 - - - -
05/10:00am 32.1 ENE 9 12 1010.3 - 0.0 - Partly cloudy 10 - - - -
05/09:30am 31.4 ENE 7 12 1010.6 - 0.0 - Partly cloudy 10 - - - -
05/09:00am 30.9 ENE 8 11 1010.7 - 0.0 - Mostly clear 10 - - - -
05/08:30am 30.2 E 7 9 1010.5 - 0.0 - - 10 - - - -
05/08:00am 29.8 ESE 4 7 1010.5 - 0.0 - - 10 - - - -
05/07:30am 28.0 ESE 2 5 1010.5 - 0.0 - - 10 - - - -
05/07:00am 25.7 E 3 4 1010.2 - 0.0 - - 10 - - - -
05/06:30am 23.9 E 1 4 1009.9 - 0.0 - - 10 - - - -
05/06:00am 22.5 E 1 4 1009.5 - 0.0 - - 10 - - - -
05/05:30am 22.7 CALM 0 0 1009.2 - 0.0 - - 10 - - - -
05/05:00am 22.5 CALM 0 0 1008.9 - 0.0 - - 10 - - - -
05/04:30am 22.9 CALM 0 0 1008.6 - 0.0 - - 10 - - - -
05/04:00am 22.9 ESE 2 3 1008.4 - 0.0 - - 10 - - - -
05/03:30am 22.8 CALM 0 0 1008.4 - 0.0 - - 10 - - - -
05/03:00am 22.5 CALM 0 3 1008.3 - 0.0 - - 10 - - - -
05/02:30am 22.8 ESE 3 4 1008.2 - 0.0 - - 10 - - - -
05/02:00am 22.7 CALM 0 0 1008.4 - 0.0 - - 10 - - - -
05/01:30am 22.9 CALM 0 0 1008.7 - 0.0 - - 10 - - - -
05/01:00am 22.8 E 1 3 1008.9 - 0.0 - - 10 - - - -
05/12:30am 22.9 CALM 0 0 1009.4 - 0.0 - - 10 - - - -
05/12:00am 23.6 CALM 0 0 1009.6 - 0.0 - - 10 - - - -
 
Date/Time
CST
Temp
°C
Wind Pressure Rain since
9am
mm
Weather Cloud Vis
km
Sea
Height
m
Swell
Dir  Spd
kts
Gust
kts
hPa Trend Height
m
Period
s
Dir
04/11:30pm 23.9 CALM 0 0 1009.7 - 0.0 - - 10 - - - -
04/11:00pm 24.3 CALM 0 0 1009.8 - 0.0 - - 10 - - - -
04/10:30pm 24.9 CALM 0 0 1009.8 - 0.0 - - 10 - - - -
04/10:00pm 25.8 CALM 0 0 1009.7 - 0.0 - - 10 - - - -
04/09:30pm 26.4 CALM 0 0 1009.6 - 0.0 - - 10 - - - -
04/09:00pm 27.4 ENE 3 5 1009.4 - 0.0 - - 10 - - - -
04/08:30pm 27.7 E 4 5 1009.0 - 0.0 - - 10 - - - -
04/08:00pm 28.5 E 3 4 1008.7 - 0.0 - - 10 - - - -
04/07:30pm 29.6 ENE 4 5 1008.8 - 0.0 - - 10 - - - -
04/07:00pm 30.4 ENE 5 7 1008.5 - 0.0 - - 10 - - - -
04/06:30pm 31.3 E 7 10 1008.2 - 0.0 - - 10 - - - -
04/06:00pm 32.3 E 9 13 1008.2 - 0.0 - - 10 - - - -
04/05:30pm 32.9 E 10 14 1008.0 - 0.0 - - 10 - - - -
04/05:00pm 33.2 E 11 16 1007.8 - 0.0 - - 10 - - - -
04/04:30pm 33.6 E 9 15 1007.7 - 0.0 - Partly cloudy 10 - - - -
04/04:00pm 34.0 E 9 14 1007.5 - 0.0 - - 10 - - - -
04/03:30pm 34.4 E 11 16 1007.7 - 0.0 - - 10 - - - -
04/03:00pm 34.5 E 11 19 1008.0 - 0.0 - - 10 - - - -
04/02:30pm 34.8 E 11 17 1008.4 - 0.0 - - 10 - - - -
04/02:00pm 34.5 E 9 16 1008.8 - 0.0 - - 10 - - - -
04/01:30pm 35.1 ESE 9 15 1009.0 - 0.0 - - 10 - - - -
04/01:00pm 34.7 E 9 15 1009.4 - 0.0 - - 10 - - - -
04/12:30pm 34.6 E 10 17 1009.7 - 0.0 - - 10 - - - -
04/12:00pm 35.3 E 11 14 1010.1 - 0.0 - Mostly clear 10 - - - -
04/11:30am 35.3 E 12 20 1010.2 - 0.0 - - 10 - - - -
04/11:00am 35.2 ENE 12 16 1010.4 - 0.0 - - 10 - - - -
04/10:30am 34.3 E 13 18 1010.7 - 0.0 - - 10 - - - -
04/10:00am 34.3 E 9 14 1010.8 - 0.0 - - 10 - - - -
04/09:30am 32.9 SE 5 8 1010.9 - 0.0 - - 10 - - - -
04/09:00am 31.5 ENE 5 7 1010.9 - 0.0 - - 10 - - - -
04/08:30am 30.0 NE 3 5 1010.8 - 0.0 - - 10 - - - -
04/08:00am 29.0 E 4 4 1010.7 - 0.0 - - 10 - - - -
04/07:30am 26.7 E 4 5 1010.5 - 0.0 - - 10 - - - -
04/07:00am 24.4 E 4 5 1010.4 - 0.0 - - 10 - - - -
04/06:30am 22.6 ESE 3 4 1010.1 - 0.0 - - 10 - - - -
04/06:00am 21.8 ESE 3 4 1009.8 - 0.0 - - 10 - - - -
04/05:30am 21.8 CALM 0 3 1009.4 - 0.0 - - 10 - - - -
04/05:00am 22.0 ESE 2 4 1009.2 - 0.0 - - 10 - - - -
04/04:30am 22.0 ESE 2 5 1008.7 - 0.0 - - 10 - - - -
04/04:00am 21.9 E 1 3 1008.5 - 0.0 - - 10 - - - -
04/03:30am 21.7 CALM 0 0 1008.4 - 0.0 - - 10 - - - -
04/03:00am 21.9 CALM 0 0 1008.4 - 0.0 - - 10 - - - -
04/02:30am 22.2 CALM 0 0 1008.5 - 0.0 - - 10 - - - -
04/02:00am 21.8 CALM 0 0 1008.8 - 0.0 - - 10 - - - -
04/01:30am 22.2 E 3 4 1009.1 - 0.0 - - 10 - - - -
04/01:00am 22.3 E 3 4 1009.6 - 0.0 - - 10 - - - -
04/12:30am 22.9 CALM 0 0 1009.9 - 0.0 - - 10 - - - -
04/12:00am 22.5 CALM 0 0 1010.4 - 0.0 - - 10 - - - -
 
Date/Time
CST
Temp
°C
Wind Pressure Rain since
9am
mm
Weather Cloud Vis
km
Sea
Height
m
Swell
Dir  Spd
kts
Gust
kts
hPa Trend Height
m
Period
s
Dir
03/11:30pm 23.1 CALM 0 0 1011.0 - 0.0 - - 10 - - - -
03/11:00pm 23.4 CALM 0 1 1011.4 - 0.0 - - 10 - - - -
03/10:30pm 24.2 E 3 4 1011.4 - 0.0 - - 10 - - - -
03/10:00pm 24.9 E 3 4 1011.2 - 0.0 - - 10 - - - -
03/09:30pm 25.5 E 3 5 1010.9 - 0.0 - - 10 - - - -
03/09:00pm 26.1 CALM 0 0 1010.6 - 0.0 - - 10 - - - -
03/08:30pm 27.2 CALM 0 0 1010.2 - 0.0 - - 10 - - - -
03/08:00pm 28.5 CALM 0 0 1009.9 - 0.0 - - 10 - - - -
03/07:30pm 29.3 E 3 4 1009.5 - 0.0 - - 10 - - - -
03/07:00pm 30.2 ESE 4 6 1009.2 - 0.0 - - 10 - - - -
03/06:30pm 31.7 E 8 10 1008.9 - 0.0 - - 10 - - - -
03/06:00pm 32.9 E 8 10 1008.5 - 0.0 - - 10 - - - -
03/05:30pm 33.8 E 8 11 1008.3 - 0.0 - - 10 - - - -
03/05:00pm 34.2 ESE 7 9 1008.0 - 0.0 - - 10 - - - -
03/04:30pm 34.3 E 7 10 1007.9 - 0.0 - - 10 - - - -
03/04:00pm 34.2 ESE 5 6 1007.9 - 0.0 - Partly cloudy 10 - - - -
03/03:30pm 33.9 SW 7 11 1008.1 - 0.0 - Partly cloudy 10 - - - -
03/03:00pm 34.1 SW 6 9 1008.4 - 0.0 - Mostly cloudy 10 - - - -
03/02:30pm 32.9 SSW 7 11 1008.6 - 0.0 - Partly cloudy 10 - - - -
03/02:00pm 32.9 SSE 6 13 1009.0 - 0.0 - Partly cloudy 10 - - - -
03/01:30pm 34.3 ENE 9 15 1009.2 - 0.0 - Partly cloudy 10 - - - -
03/01:00pm 34.6 SE 6 9 1009.5 - 0.0 - Partly cloudy 10 - - - -
03/12:30pm 34.4 E 9 14 1009.8 - 0.0 - Partly cloudy 10 - - - -
03/12:00pm 34.0 E 7 14 1010.2 - 0.0 - Partly cloudy 10 - - - -
03/11:30am 34.5 ENE 7 9 1010.8 - 0.0 - Partly cloudy 10 - - - -
03/11:00am 33.5 E 7 11 1011.3 - 0.0 - - 10 - - - -
03/10:30am 33.2 ENE 8 11 1011.5 - 0.0 - - 10 - - - -

Other Formats:

Comma delimited format used in spreadsheet applications
http://www.bom.gov.au/fwo/IDD60701/IDD60701.94153.axf

JavaScript Object Notation format (JSON) in row-major order
http://www.bom.gov.au/fwo/IDD60701/IDD60701.94153.json